Strona główna
METAR-TAF:

METAR-TAF

Lotnisko :

Westminster, Maryland, Stany Zjednoczone

Szerokość geograficzna: 39-36-30N, Długość geograficzna: 077-00-28W, wysokość: 240 m

Aktualna obserwacja pogody

Raport powstał 34 minut temu, godzina 08:25 UTC
Wiatr 6 kt od zachodnio-południowy zachód
Temperatura 3°C
Wilgotność 100%
Ciśnienie 1006 hPa
Widzialność: 6.4 km
Przerywane chmury na wysokości 300 ft
Przerywane chmury na wysokości 2500 ft
Zachmurzenie całkowite na wysokości 3900 ft
deszcz

METAR: KDMW 190825Z AUTO 24006KT 4SM RA BKN003 BKN025 OVC039 03/03 A2972 RMK AO2 P0003

czas: 03:59 (08:59 UTC)


TAF: brakujący

Obserwacja i prognoza pogody dla ponad 4000 lotnisk (raport METAR i TAF).

Dostępne stacje oznaczono żółtymi i czerwonymi punktami na mapie.

Najedź kursorem aby zobaczyć nazwę stacji.

Kliknij aby zobaczyć obserwacje i prognozy pogody.

Aby zmienić mapę: kliknij na zielony przycisk z czarnym krzyżykiem, aby powiększyć; na zielony przycisk z myślnikiem, aby pomniejszyć; na zielone strzałki, aby przejść do map sąsiednich.


METAR-TAF: